Tongdao, China
Current Conditions -  °F | °C
As of 3:00 AM on Saturday 29 Nov 2014 (Local Time) from ZGKL Reporting Station
Overcast Overcast  
Wind Chill: 59°   Ceiling: 4300
Heat Index: 59°   Visibility: 5mi
Dew Point: 55°   Wind: 2mph
Humidity: 88%   Direction: NA
Pressure: 29.91"   Gusts: NA
Location:  26.17°N, 109.78°E
Report Text: ZGKL 281900Z VRB01MPS 8000 FEW023 OVC043 15/13 Q1013 NOSIG
Loading
Personal Weather Stations






























Interactive Weather Map New forecast layout! Learn more

10-Day Weather Forecast

Advertisements
Track Severe Weather on mobile